Time;durP1;ratioP1;P1;durP2;ratioP2;P2;SDS_P1;SDS_P2;PMS_P1;PMS_P2;Temp;Humidity;BMP_temperature;BMP_pressure;BME280_temperature;BME280_humidity;BME280_pressure;Samples;Min_cycle;Max_cycle;Signal;HPM_P1;HPM_P2
2022/03/07 00:02:39;;;;;;;9.90;7.13;;;;;;;-3.55;88.39;97209.59;10453310;28;20218;-61
2022/03/07 00:07:39;;;;;;;10.23;6.77;;;;;;;-3.55;87.51;97207.03;10453273;28;20275;-60
2022/03/07 00:12:40;;;;;;;9.33;7.07;;;;;;;-3.49;87.97;97216.19;10453026;28;20206;-60
2022/03/07 00:17:41;;;;;;;10.40;6.77;;;;;;;-3.51;88.71;97223.13;10452274;28;20238;-59
2022/03/07 00:22:41;;;;;;;9.10;6.47;;;;;;;-3.49;89.24;97227.28;10452500;28;20783;-61
2022/03/07 00:27:41;;;;;;;9.03;6.80;;;;;;;-3.54;88.95;97234.28;10452630;28;20184;-61
2022/03/07 00:32:42;;;;;;;10.13;7.17;;;;;;;-3.61;89.50;97238.81;10452387;28;20230;-60
2022/03/07 00:37:43;;;;;;;12.10;6.80;;;;;;;-3.64;89.87;97238.94;10434222;28;20694;-59
2022/03/07 00:42:45;;;;;;;9.20;6.00;;;;;;;-3.64;90.11;97243.22;10451998;28;20286;-57
2022/03/07 00:47:46;;;;;;;11.27;6.60;;;;;;;-3.61;89.88;97238.00;10434374;28;20210;-61
2022/03/07 00:52:47;;;;;;;8.60;6.07;;;;;;;-3.62;90.23;97247.38;10433906;28;20215;-61
2022/03/07 00:57:47;;;;;;;11.03;6.17;;;;;;;-3.66;90.33;97238.16;10451818;28;20230;-59
2022/03/07 01:02:48;;;;;;;9.57;6.63;;;;;;;-3.65;90.80;97239.81;10451608;28;20220;-57
2022/03/07 01:07:48;;;;;;;11.57;6.83;;;;;;;-3.64;91.27;97240.66;10451595;28;20214;-60
2022/03/07 01:12:48;;;;;;;10.87;6.90;;;;;;;-3.60;92.03;97239.63;10451302;28;20592;-60
2022/03/07 01:17:49;;;;;;;10.67;7.17;;;;;;;-3.68;92.46;97247.59;10451061;28;20649;-60
2022/03/07 01:22:49;;;;;;;9.00;6.43;;;;;;;-3.69;93.13;97245.09;10451037;28;20235;-61
2022/03/07 01:27:50;;;;;;;9.53;6.90;;;;;;;-3.68;93.39;97241.66;10451251;28;20184;-60
2022/03/07 01:32:52;;;;;;;10.17;7.07;;;;;;;-3.69;93.72;97240.84;10452394;28;20292;-60
2022/03/07 01:37:52;;;;;;;11.13;7.13;;;;;;;-3.70;93.96;97239.16;10458963;28;20310;-61
2022/03/07 01:42:53;;;;;;;13.37;7.33;;;;;;;-3.73;93.83;97231.59;10458777;28;20364;-61
2022/03/07 01:47:54;;;;;;;9.83;6.30;;;;;;;-3.72;94.25;97227.28;10440936;28;20187;-61
2022/03/07 01:52:54;;;;;;;9.33;6.20;;;;;;;-3.71;93.28;97216.16;10458613;28;20207;-62
2022/03/07 01:57:55;;;;;;;9.93;6.53;;;;;;;-3.69;93.37;97225.47;10424089;28;20694;-58
2022/03/07 02:02:55;;;;;;;10.27;6.00;;;;;;;-3.72;93.23;97220.47;10439497;28;20238;-60
2022/03/07 02:08:04;;;;;;;9.50;6.30;;;;;;;-3.71;92.95;97203.38;10440007;28;20199;-61
2022/03/07 02:13:16;;;;;;;10.63;6.20;;;;;;;-3.68;92.84;97214.31;10439775;28;20302;-61
2022/03/07 02:18:22;;;;;;;8.03;5.97;;;;;;;-3.74;92.10;97196.63;10439405;28;20195;-61
2022/03/07 02:23:23;;;;;;;9.37;6.07;;;;;;;-3.76;91.55;97180.50;10438783;28;20603;-61
2022/03/07 02:28:24;;;;;;;10.57;6.37;;;;;;;-3.78;91.21;97185.69;10436413;28;20210;-60
2022/03/07 02:33:24;;;;;;;10.63;6.20;;;;;;;-3.80;91.53;97182.34;10436217;28;20226;-58
2022/03/07 02:38:24;;;;;;;8.30;5.97;;;;;;;-3.79;90.19;97165.25;10438248;28;20196;-59
2022/03/07 02:43:26;;;;;;;10.83;6.00;;;;;;;-3.79;90.82;97170.38;10438244;28;20208;-58
2022/03/07 02:48:27;;;;;;;12.33;5.93;;;;;;;-3.78;90.69;97170.31;10455469;28;20612;-57
2022/03/07 02:53:28;;;;;;;7.93;6.00;;;;;;;-3.84;90.33;97174.84;10438147;28;20318;-60
2022/03/07 02:58:28;;;;;;;12.00;6.53;;;;;;;-3.87;90.76;97169.84;10456061;28;20257;-60
2022/03/07 03:03:29;;;;;;;10.10;6.37;;;;;;;-3.94;91.15;97179.44;10455670;28;20230;-58
2022/03/07 03:08:29;;;;;;;9.03;6.13;;;;;;;-3.96;92.11;97196.59;10455672;28;20757;-61
2022/03/07 03:13:29;;;;;;;9.67;6.43;;;;;;;-3.95;92.62;97200.81;10455284;28;20220;-60
2022/03/07 03:18:30;;;;;;;8.87;6.30;;;;;;;-3.93;92.30;97205.88;10454946;28;20192;-58
2022/03/07 03:23:30;;;;;;;8.87;6.17;;;;;;;-3.91;92.48;97214.34;10454985;28;20651;-61
2022/03/07 03:28:31;;;;;;;10.93;6.40;;;;;;;-3.88;93.15;97221.91;10454914;28;20199;-61
2022/03/07 03:33:31;;;;;;;10.10;6.37;;;;;;;-3.89;93.32;97213.41;10454331;28;20592;-59
2022/03/07 03:38:31;;;;;;;12.70;6.43;;;;;;;-3.88;91.76;97194.56;10454562;28;20297;-60
2022/03/07 03:43:32;;;;;;;9.97;6.57;;;;;;;-3.87;90.58;97185.19;10454003;28;20237;-60
2022/03/07 03:48:32;;;;;;;10.07;6.73;;;;;;;-3.84;90.91;97190.19;10454120;28;20196;-59
2022/03/07 03:53:32;;;;;;;9.97;6.83;;;;;;;-3.72;90.78;97184.63;10453525;28;20315;-61
2022/03/07 03:58:33;;;;;;;9.33;6.97;;;;;;;-3.69;90.57;97181.94;10453245;28;20188;-61
2022/03/07 04:03:33;;;;;;;11.50;7.10;;;;;;;-3.77;91.73;97191.63;10441569;28;20273;-61
2022/03/07 04:08:34;;;;;;;11.87;7.13;;;;;;;-3.68;92.18;97195.56;10412016;28;20192;-59
2022/03/07 04:13:34;;;;;;;11.40;6.80;;;;;;;-3.48;91.93;97198.22;10411909;28;20254;-58
2022/03/07 04:18:34;;;;;;;11.23;6.73;;;;;;;-3.58;92.12;97207.16;10410929;28;20550;-60
2022/03/07 04:23:35;;;;;;;10.13;6.83;;;;;;;-3.65;93.45;97219.31;10411374;28;20266;-57
2022/03/07 04:28:35;;;;;;;10.70;7.00;;;;;;;-3.64;93.23;97218.44;10411380;28;20200;-60
2022/03/07 04:33:36;;;;;;;10.17;6.93;;;;;;;-3.62;94.31;97233.75;10411089;28;20227;-59
2022/03/07 04:38:36;;;;;;;9.87;5.97;;;;;;;-3.70;95.29;97235.78;10411293;28;20204;-57
2022/03/07 04:43:37;;;;;;;10.67;6.47;;;;;;;-3.75;97.10;97235.94;10410856;28;20303;-61
2022/03/07 04:48:37;;;;;;;10.27;6.30;;;;;;;-3.80;98.68;97237.81;10411009;28;20192;-60
2022/03/07 04:53:38;;;;;;;10.63;6.57;;;;;;;-3.74;99.85;97247.00;10410350;28;20219;-60
2022/03/07 04:58:39;;;;;;;10.97;6.27;;;;;;;-3.70;100.00;97244.28;10410798;28;20184;-60
2022/03/07 05:03:39;;;;;;;9.07;6.27;;;;;;;-3.68;100.00;97242.47;10410593;28;20204;-58
2022/03/07 05:08:39;;;;;;;8.37;6.20;;;;;;;-3.70;100.00;97244.28;10413822;28;20219;-57
2022/03/07 05:13:40;;;;;;;13.13;6.70;;;;;;;-3.74;100.00;97244.44;10418935;28;20235;-59
2022/03/07 05:18:40;;;;;;;9.27;6.20;;;;;;;-3.73;100.00;97248.69;10418718;28;20238;-55
2022/03/07 05:23:40;;;;;;;8.53;6.13;;;;;;;-3.60;100.00;97255.84;10419073;28;20236;-59
2022/03/07 05:28:41;;;;;;;11.53;5.73;;;;;;;-3.61;100.00;97253.34;10419042;28;20270;-57
2022/03/07 05:33:41;;;;;;;10.67;7.17;;;;;;;-3.67;100.00;97262.09;10418486;28;20228;-59
2022/03/07 05:38:41;;;;;;;12.27;6.73;;;;;;;-3.61;100.00;97266.97;10400477;28;20219;-59
2022/03/07 05:43:42;;;;;;;10.87;6.97;;;;;;;-3.53;100.00;97265.88;10417933;28;20208;-58
2022/03/07 05:48:42;;;;;;;10.33;6.20;;;;;;;-3.58;100.00;97274.56;10418206;28;20196;-54
2022/03/07 05:53:42;;;;;;;9.70;5.87;;;;;;;-3.61;100.00;97284.91;10417827;28;20216;-56
2022/03/07 05:58:43;;;;;;;9.80;6.10;;;;;;;-3.57;100.00;97290.75;10417741;28;20601;-59
2022/03/07 06:03:44;;;;;;;9.53;6.27;;;;;;;-3.53;100.00;97291.50;10417251;28;20703;-59
2022/03/07 06:08:44;;;;;;;7.23;5.60;;;;;;;-3.39;100.00;97296.09;10417180;28;20202;-60
2022/03/07 06:13:46;;;;;;;9.07;6.10;;;;;;;-3.32;100.00;97294.97;10416781;28;20258;-59
2022/03/07 06:18:46;;;;;;;11.17;5.60;;;;;;;-3.16;100.00;97296.09;10416387;28;20601;-59
2022/03/07 06:23:46;;;;;;;9.87;6.23;;;;;;;-3.15;100.00;97290.06;10416077;28;20243;-59
2022/03/07 06:28:47;;;;;;;10.57;6.20;;;;;;;-3.20;100.00;97303.94;10427035;28;20274;-61
2022/03/07 06:33:47;;;;;;;7.73;5.43;;;;;;;-3.15;100.00;97308.00;10460640;28;20324;-59
2022/03/07 06:38:47;;;;;;;8.47;5.87;;;;;;;-2.98;100.00;97312.50;10456947;28;20191;-59
2022/03/07 06:43:48;;;;;;;16.73;6.50;;;;;;;-3.03;100.00;97316.97;10456707;28;20269;-62
2022/03/07 06:48:48;;;;;;;11.57;6.00;;;;;;;-2.77;100.00;97325.38;10456574;28;20195;-59
2022/03/07 06:53:48;;;;;;;10.37;5.60;;;;;;;-2.60;100.00;97322.19;10456293;28;20242;-59
2022/03/07 06:58:49;;;;;;;10.70;5.67;;;;;;;-2.37;100.00;97316.16;10456030;28;20215;-56
2022/03/07 07:03:49;;;;;;;7.83;4.80;;;;;;;-2.38;100.00;97327.28;10455953;28;20302;-58
2022/03/07 07:08:50;;;;;;;9.30;5.03;;;;;;;-2.07;100.00;97332.00;10455797;28;20184;-52
2022/03/07 07:13:50;;;;;;;11.20;5.27;;;;;;;-1.79;99.20;97328.31;10497137;22;20292;-61
2022/03/07 07:18:50;;;;;;;7.90;4.87;;;;;;;-1.54;96.21;97317.81;10496488;28;20779;-61
2022/03/07 07:23:51;;;;;;;11.20;5.27;;;;;;;-1.29;94.45;97306.44;10496810;28;20289;-63
2022/03/07 07:28:51;;;;;;;5.97;4.43;;;;;;;-1.07;90.81;97296.03;10475193;28;20215;-61
2022/03/07 07:33:51;;;;;;;7.17;5.00;;;;;;;-1.40;92.01;97309.50;10475014;28;20620;-64
2022/03/07 07:38:52;;;;;;;10.70;5.33;;;;;;;-1.40;92.82;97324.91;10474554;28;20278;-63
2022/03/07 07:43:52;;;;;;;9.40;6.63;;;;;;;-1.39;91.22;97310.31;10456031;28;20265;-63
2022/03/07 07:48:52;;;;;;;6.00;4.30;;;;;;;-0.92;87.70;97279.06;10454961;28;20179;-62
2022/03/07 07:53:53;;;;;;;8.27;4.57;;;;;;;-0.66;86.75;97279.56;10456459;28;20255;-65
2022/03/07 07:58:53;;;;;;;8.03;4.77;;;;;;;-0.84;85.33;97276.97;10453857;28;20279;-64
2022/03/07 08:03:54;;;;;;;9.97;4.73;;;;;;;-0.69;85.73;97285.69;10453856;28;20285;-64
2022/03/07 08:08:54;;;;;;;9.63;4.57;;;;;;;-0.17;83.98;97271.22;10487901;28;20196;-63
2022/03/07 08:13:54;;;;;;;6.30;4.43;;;;;;;-0.05;82.38;97250.00;10494682;28;20613;-64
2022/03/07 08:18:55;;;;;;;7.47;4.63;;;;;;;0.25;80.80;97245.03;10494854;28;20202;-62
2022/03/07 08:23:55;;;;;;;6.47;4.57;;;;;;;0.44;80.11;97252.63;10493947;28;20213;-63
2022/03/07 08:28:55;;;;;;;5.30;4.13;;;;;;;0.79;80.13;97252.50;10494676;28;20191;-64
2022/03/07 08:33:56;;;;;;;6.10;3.97;;;;;;;1.23;78.01;97222.63;10494102;28;20659;-62
2022/03/07 08:38:56;;;;;;;5.30;3.67;;;;;;;1.77;74.16;97168.72;10494341;28;20190;-62
2022/03/07 08:43:57;;;;;;;4.50;3.37;;;;;;;2.36;70.66;97130.75;10493123;28;20211;-61
2022/03/07 08:48:57;;;;;;;8.77;4.17;;;;;;;2.56;68.40;97108.81;10494133;28;20183;-63
2022/03/07 08:53:57;;;;;;;6.73;3.47;;;;;;;2.75;66.86;97091.22;10493809;28;20202;-60
2022/03/07 08:58:58;;;;;;;4.27;2.90;;;;;;;1.95;65.52;97053.13;10493856;28;20669;-63
2022/03/07 09:03:58;;;;;;;6.67;3.50;;;;;;;1.57;68.63;97138.06;10493533;28;20731;-64
2022/03/07 09:08:58;;;;;;;6.80;3.50;;;;;;;1.75;68.89;97143.91;10493776;28;20669;-64
2022/03/07 09:13:59;;;;;;;6.50;3.43;;;;;;;1.68;68.26;97122.78;10493086;28;20265;-65
2022/03/07 09:18:59;;;;;;;6.23;3.27;;;;;;;2.80;66.03;97114.22;10493401;28;20195;-64
2022/03/07 09:23:59;;;;;;;6.00;3.13;;;;;;;3.19;65.39;97104.81;10489744;28;20214;-64
2022/03/07 09:29:00;;;;;;;8.27;3.97;;;;;;;2.55;66.07;97113.19;10472210;28;20215;-63
2022/03/07 09:34:00;;;;;;;4.03;2.60;;;;;;;2.62;65.95;97116.19;10486277;28;20219;-64
2022/03/07 09:39:01;;;;;;;5.90;2.90;;;;;;;3.56;65.18;97105.75;10485464;28;20241;-63
2022/03/07 09:44:01;;;;;;;5.63;2.50;;;;;;;5.62;59.40;97006.28;10490447;28;20215;-66
2022/03/07 09:49:02;;;;;;;7.87;2.70;;;;;;;7.10;55.05;96933.75;10490414;28;20195;-64
2022/03/07 09:54:02;;;;;;;5.30;2.70;;;;;;;6.02;55.85;96966.78;10490708;28;20231;-63
2022/03/07 09:59:03;;;;;;;8.07;3.10;;;;;;;6.51;54.96;96955.97;10498004;28;20205;-63
2022/03/07 10:04:06;;;;;;;4.33;2.57;;;;;;;6.87;53.91;96935.69;10497134;28;20226;-61
2022/03/07 10:09:07;;;;;;;3.67;2.30;;;;;;;7.22;53.66;96942.31;10497550;28;20190;-61
2022/03/07 10:14:07;;;;;;;6.07;2.90;;;;;;;5.91;53.75;96914.75;10496310;28;20223;-64
2022/03/07 10:19:13;;;;;;;5.70;2.80;;;;;;;8.05;51.77;96916.91;10496497;28;20242;-64
2022/03/07 10:24:13;;;;;;;5.30;3.27;;;;;;;6.94;51.91;96909.00;10496696;28;20678;-64
2022/03/07 10:29:14;;;;;;;2.90;2.60;;;;;;;6.63;53.87;96965.41;10477304;28;20210;-62
2022/03/07 10:34:14;;;;;;;2.10;1.90;;;;;;;7.78;51.72;96930.56;10496287;28;20223;-62
2022/03/07 10:39:23;;;;;;;4.33;2.37;;;;;;;5.78;55.35;96969.50;10495937;28;20195;-62
2022/03/07 10:44:31;;;;;;;5.07;3.00;;;;;;;4.88;57.73;97027.41;10495922;28;20588;-63
2022/03/07 10:49:32;;;;;;;3.50;2.33;;;;;;;4.74;58.57;97054.38;10495640;28;20561;-62
2022/03/07 10:54:36;;;;;;;4.43;2.60;;;;;;;5.30;57.35;97032.13;10495759;28;20231;-63
2022/03/07 10:59:38;;;;;;;4.37;2.83;;;;;;;3.95;61.49;97094.56;10494220;28;20249;-63
2022/03/07 11:04:39;;;;;;;4.93;2.90;;;;;;;4.47;59.99;97067.56;10494639;28;20207;-63
2022/03/07 11:09:40;;;;;;;5.00;3.23;;;;;;;5.44;58.97;97070.88;10494867;28;20244;-64
2022/03/07 11:14:41;;;;;;;2.83;2.20;;;;;;;6.75;55.36;97005.22;10494321;28;20231;-63
2022/03/07 11:19:42;;;;;;;5.50;2.53;;;;;;;6.65;54.89;96981.72;10494542;28;20541;-63
2022/03/07 11:24:43;;;;;;;5.23;2.87;;;;;;;5.67;56.55;96998.13;10476440;28;20204;-61
2022/03/07 11:29:43;;;;;;;5.47;2.60;;;;;;;6.22;55.56;96991.22;10476542;28;20199;-63
2022/03/07 11:34:53;;;;;;;4.13;2.87;;;;;;;5.72;56.98;97012.41;10492989;28;20219;-62
2022/03/07 11:39:56;;;;;;;4.07;3.13;;;;;;;4.45;61.13;97075.44;10493595;28;20194;-61
2022/03/07 11:45:04;;;;;;;3.40;2.53;;;;;;;6.21;57.83;97023.38;10494060;28;20298;-63
2022/03/07 11:50:05;;;;;;;2.83;2.47;;;;;;;8.68;51.43;96913.94;10469707;28;20192;-60
2022/03/07 11:55:12;;;;;;;6.03;2.70;;;;;;;7.81;52.17;96920.72;10469995;28;20241;-62
2022/03/07 12:00:17;;;;;;;7.77;3.33;;;;;;;7.54;53.15;96917.91;10470041;28;20188;-62
2022/03/07 12:05:27;;;;;;;5.70;3.63;;;;;;;4.77;59.90;97029.97;10460147;28;20220;-60
2022/03/07 12:10:27;;;;;;;6.40;3.87;;;;;;;4.56;61.61;97073.84;10451377;28;20191;-59
2022/03/07 12:15:28;;;;;;;6.40;3.20;;;;;;;6.36;59.07;97043.94;10450582;28;20296;-59
2022/03/07 12:20:28;;;;;;;5.90;3.67;;;;;;;8.11;55.42;96994.63;10450599;28;20210;-63
2022/03/07 12:25:32;;;;;;;7.77;3.07;;;;;;;7.72;54.67;96968.47;10432493;28;20224;-61
2022/03/07 12:30:33;;;;;;;5.37;3.80;;;;;;;5.81;59.67;97047.25;10466275;28;20188;-56
2022/03/07 12:35:33;;;;;;;3.73;3.07;;;;;;;6.35;57.36;97004.06;10462024;28;20237;-62
2022/03/07 12:40:37;;;;;;;3.53;2.67;;;;;;;8.08;54.60;96962.78;10491703;28;20198;-58
2022/03/07 12:45:46;;;;;;;5.80;3.77;;;;;;;7.24;57.33;96985.56;10491775;28;20250;-57
2022/03/07 12:50:46;;;;;;;5.33;3.50;;;;;;;6.87;57.62;97003.41;10491093;28;20187;-60
2022/03/07 12:55:47;;;;;;;4.87;3.00;;;;;;;6.38;57.74;96992.59;10491327;28;20211;-57
2022/03/07 13:00:47;;;;;;;7.13;4.10;;;;;;;5.04;62.34;97065.19;10472233;28;20206;-57
2022/03/07 13:05:59;;;;;;;6.33;4.17;;;;;;;4.50;65.72;97129.59;10472136;28;20221;-58
2022/03/07 13:10:59;;;;;;;7.70;4.30;;;;;;;5.66;64.86;97113.41;10468600;28;20192;-60
2022/03/07 13:16:00;;;;;;;7.27;3.40;;;;;;;5.36;61.75;97021.25;10544297;22;20317;-62
2022/03/07 13:21:00;;;;;;;9.17;4.93;;;;;;;4.33;65.33;97107.44;10541813;28;20189;-62
2022/03/07 13:26:00;;;;;;;7.23;4.63;;;;;;;4.54;66.55;97138.00;10522423;28;20219;-63
2022/03/07 13:31:08;;;;;;;8.90;4.60;;;;;;;4.09;69.43;97187.78;10536889;28;20230;-63
2022/03/07 13:36:12;;;;;;;5.07;3.53;;;;;;;4.12;69.33;97164.25;10540303;28;20214;-63
2022/03/07 13:41:12;;;;;;;9.93;5.17;;;;;;;3.72;70.30;97177.28;10535884;28;20615;-63
2022/03/07 13:46:14;;;;;;;7.57;4.30;;;;;;;3.79;71.66;97199.25;10539756;28;20312;-63
2022/03/07 13:51:15;;;;;;;9.40;4.50;;;;;;;4.24;69.65;97152.16;10533309;28;20536;-62
2022/03/07 13:56:15;;;;;;;8.30;3.87;;;;;;;3.74;69.68;97149.53;10531166;28;20246;-63
2022/03/07 14:01:15;;;;;;;5.57;3.63;;;;;;;3.72;70.32;97148.78;10528268;28;20198;-61
2022/03/07 14:06:19;;;;;;;8.33;4.27;;;;;;;3.79;69.83;97139.66;10526972;28;20245;-63
2022/03/07 14:11:19;;;;;;;6.00;3.20;;;;;;;4.21;68.76;97103.13;10523390;28;20198;-62
2022/03/07 14:16:21;;;;;;;5.10;3.70;;;;;;;4.63;66.57;97062.09;10529619;28;20265;-63
2022/03/07 14:21:21;;;;;;;6.20;4.20;;;;;;;4.70;66.24;97054.69;10528768;28;20240;-64
2022/03/07 14:26:21;;;;;;;6.80;4.00;;;;;;;4.38;67.43;97063.03;10526207;28;20910;-63
2022/03/07 14:31:22;;;;;;;5.53;3.57;;;;;;;3.98;68.18;97063.25;10529938;28;20770;-63
2022/03/07 14:36:22;;;;;;;10.17;3.60;;;;;;;3.73;69.37;97083.88;10534395;28;20202;-63
2022/03/07 14:41:23;;;;;;;4.83;3.60;;;;;;;3.51;69.89;97084.53;10524355;28;20426;-63
2022/03/07 14:46:24;;;;;;;5.80;3.80;;;;;;;4.44;68.01;97052.22;10531900;28;20219;-63
2022/03/07 14:51:26;;;;;;;4.97;2.93;;;;;;;5.35;63.76;96968.47;10537506;28;20195;-62
2022/03/07 14:56:28;;;;;;;6.03;3.40;;;;;;;5.03;63.35;96965.72;10537365;28;20733;-62
2022/03/07 15:01:30;;;;;;;8.17;3.70;;;;;;;4.56;65.07;96996.03;10530837;28;20197;-62
2022/03/07 15:06:32;;;;;;;6.10;3.10;;;;;;;7.16;59.37;96915.00;10537080;28;20704;-63
2022/03/07 15:11:38;;;;;;;5.63;3.30;;;;;;;9.84;52.52;96816.00;10536612;28;20332;-62
2022/03/07 15:16:39;;;;;;;7.13;4.97;;;;;;;10.39;48.21;96739.09;10555795;28;20235;-61
2022/03/07 15:21:41;;;;;;;3.70;3.30;;;;;;;6.36;56.31;96857.41;10548415;28;20186;-62
2022/03/07 15:26:43;;;;;;;7.07;3.60;;;;;;;5.79;60.75;96962.53;10550027;28;20236;-62
2022/03/07 15:31:44;;;;;;;5.83;3.50;;;;;;;4.37;64.66;97023.31;10533613;28;20293;-62
2022/03/07 15:36:45;;;;;;;4.73;3.57;;;;;;;3.74;67.23;97061.41;10535606;28;20202;-60
2022/03/07 15:41:45;;;;;;;7.33;3.70;;;;;;;3.72;68.39;97074.47;10540704;28;20214;-62
2022/03/07 15:46:45;;;;;;;5.43;4.00;;;;;;;3.26;68.46;97074.97;10552879;28;20222;-61
2022/03/07 15:51:47;;;;;;;4.73;3.40;;;;;;;3.31;68.84;97088.44;10542120;28;20251;-61
2022/03/07 15:56:48;;;;;;;7.27;3.50;;;;;;;3.05;69.95;97105.72;10535437;28;20203;-63
2022/03/07 16:01:50;;;;;;;5.20;3.43;;;;;;;3.15;70.08;97106.75;10534696;28;20197;-60
2022/03/07 16:06:54;;;;;;;7.33;3.70;;;;;;;3.18;70.13;97118.66;10534435;28;20701;-62
2022/03/07 16:11:55;;;;;;;5.70;4.30;;;;;;;3.09;70.23;97101.16;10534300;28;20206;-62
2022/03/07 16:16:56;;;;;;;8.60;4.97;;;;;;;2.99;70.85;97121.63;10533447;28;20233;-62
2022/03/07 16:21:59;;;;;;;7.93;4.97;;;;;;;2.82;72.23;97140.84;10532491;28;20281;-62
2022/03/07 16:26:59;;;;;;;6.67;3.83;;;;;;;2.73;71.56;97133.66;10533584;28;20343;-61
2022/03/07 16:32:00;;;;;;;11.67;5.50;;;;;;;2.49;72.44;97154.94;10533729;28;20189;-61
2022/03/07 16:37:00;;;;;;;9.83;6.33;;;;;;;2.21;73.57;97172.16;10533471;28;20183;-62
2022/03/07 16:42:00;;;;;;;11.93;7.47;;;;;;;1.99;74.62;97184.69;10532733;28;20190;-62
2022/03/07 16:47:01;;;;;;;13.20;6.77;;;;;;;1.68;75.82;97200.25;10538602;28;20268;-61
2022/03/07 16:52:01;;;;;;;9.00;4.90;;;;;;;1.37;76.70;97212.34;10530162;28;20193;-62
2022/03/07 16:57:04;;;;;;;7.23;4.20;;;;;;;1.17;77.54;97223.78;10532833;28;20667;-62
2022/03/07 17:02:04;;;;;;;15.43;7.23;;;;;;;0.87;79.15;97249.50;10533793;28;20284;-62
2022/03/07 17:07:05;;;;;;;16.43;8.03;;;;;;;0.84;79.41;97244.53;10534466;28;20765;-63
2022/03/07 17:12:05;;;;;;;17.30;6.47;;;;;;;1.01;80.68;97253.91;10535737;28;20246;-62
2022/03/07 17:17:06;;;;;;;7.47;4.57;;;;;;;1.01;80.92;97253.91;10536136;28;20256;-62
2022/03/07 17:22:07;;;;;;;21.67;11.73;;;;;;;0.55;82.49;97257.22;10535452;28;20197;-63
2022/03/07 17:27:08;;;;;;;232.60;95.03;;;;;;;0.10;86.42;97244.06;10534945;28;20236;-62
2022/03/07 17:32:08;;;;;;;11.27;6.10;;;;;;;0.24;87.19;97239.97;10534639;28;20244;-62
2022/03/07 17:37:09;;;;;;;8.30;5.50;;;;;;;0.04;89.07;97238.41;10534404;28;20668;-62
2022/03/07 17:42:09;;;;;;;13.10;5.47;;;;;;;-0.07;90.59;97236.38;10533380;28;20187;-62
2022/03/07 17:47:09;;;;;;;11.53;6.40;;;;;;;0.07;90.25;97227.94;10534229;28;20218;-62
2022/03/07 17:52:10;;;;;;;14.40;5.57;;;;;;;0.02;91.45;97238.47;10534038;28;20188;-62
2022/03/07 17:57:11;;;;;;;8.53;5.47;;;;;;;-0.12;93.23;97234.03;10534082;28;20186;-62
2022/03/07 18:02:11;;;;;;;14.03;7.83;;;;;;;-0.21;94.08;97232.75;10533885;28;20187;-62
2022/03/07 18:07:12;;;;;;;16.07;8.60;;;;;;;-0.23;95.92;97249.16;10533976;28;20226;-62
2022/03/07 18:12:17;;;;;;;16.90;8.53;;;;;;;-0.20;96.82;97243.88;10533491;28;20193;-62
2022/03/07 18:17:18;;;;;;;14.10;8.27;;;;;;;-0.26;96.54;97247.59;10538233;28;20215;-60
2022/03/07 18:22:18;;;;;;;15.70;8.47;;;;;;;-0.22;96.84;97253.41;10540389;28;20362;-62
2022/03/07 18:27:19;;;;;;;15.10;7.37;;;;;;;-0.28;98.42;97251.16;10540582;28;20222;-62
2022/03/07 18:32:19;;;;;;;16.07;8.57;;;;;;;-0.32;98.19;97250.47;10540265;28;20264;-62
2022/03/07 18:37:20;;;;;;;12.47;7.17;;;;;;;-0.40;98.48;97253.44;10540421;28;20186;-61
2022/03/07 18:42:20;;;;;;;13.60;6.73;;;;;;;-0.45;99.91;97257.94;10539864;28;20301;-61
2022/03/07 18:47:22;;;;;;;10.73;6.20;;;;;;;-0.53;100.00;97260.06;10539774;28;20219;-61
2022/03/07 18:52:22;;;;;;;8.87;5.73;;;;;;;-0.59;100.00;97260.38;10539673;28;20214;-60
2022/03/07 18:57:22;;;;;;;11.87;6.20;;;;;;;-0.60;100.00;97259.56;10539340;28;20259;-58
2022/03/07 19:02:23;;;;;;;13.33;8.10;;;;;;;-0.74;100.00;97273.03;10539466;28;20202;-57
2022/03/07 19:07:26;;;;;;;16.50;8.27;;;;;;;-0.95;100.00;97274.06;10539231;28;20222;-60
2022/03/07 19:12:27;;;;;;;15.23;8.80;;;;;;;-0.84;100.00;97269.25;10538440;28;20218;-58
2022/03/07 19:17:27;;;;;;;10.73;7.13;;;;;;;-0.87;100.00;97279.69;10538786;28;20269;-61
2022/03/07 19:22:28;;;;;;;12.23;6.83;;;;;;;-0.88;100.00;97282.34;10538235;28;20626;-61
2022/03/07 19:27:29;;;;;;;11.80;5.23;;;;;;;-0.85;100.00;97284.75;10537373;28;20210;-61
2022/03/07 19:32:30;;;;;;;13.40;7.17;;;;;;;-0.87;100.00;97292.56;10537821;28;20214;-60
2022/03/07 19:37:30;;;;;;;13.13;6.30;;;;;;;-0.91;100.00;97284.13;10537963;28;20182;-61
2022/03/07 19:42:31;;;;;;;9.77;5.50;;;;;;;-0.80;100.00;97283.63;10537640;28;20222;-61
2022/03/07 19:47:31;;;;;;;10.83;5.77;;;;;;;-0.74;100.00;97287.66;10537175;28;20226;-60
2022/03/07 19:52:31;;;;;;;7.00;5.07;;;;;;;-0.92;100.00;97285.06;10537187;28;20207;-61
2022/03/07 19:57:32;;;;;;;9.47;5.83;;;;;;;-1.25;100.00;97297.69;10537028;28;20187;-61
2022/03/07 20:02:32;;;;;;;9.63;5.60;;;;;;;-1.20;100.00;97295.75;10537226;28;20206;-58
2022/03/07 20:07:33;;;;;;;11.93;6.73;;;;;;;-1.37;100.00;97304.22;10537284;28;20263;-61
2022/03/07 20:12:33;;;;;;;10.67;6.90;;;;;;;-1.39;100.00;97307.75;10536207;28;20332;-61
2022/03/07 20:17:34;;;;;;;11.07;6.60;;;;;;;-1.38;100.00;97312.81;10536888;28;20190;-61
2022/03/07 20:22:34;;;;;;;9.90;5.77;;;;;;;-1.48;100.00;97301.28;10535484;28;20263;-61
2022/03/07 20:27:35;;;;;;;10.40;5.70;;;;;;;-1.56;100.00;97311.91;10536320;28;20229;-59
2022/03/07 20:32:35;;;;;;;9.00;5.53;;;;;;;-1.78;100.00;97321.44;10536083;28;20218;-61
2022/03/07 20:37:36;;;;;;;10.00;5.50;;;;;;;-1.87;100.00;97320.94;10535718;28;20199;-61
2022/03/07 20:42:37;;;;;;;10.13;5.70;;;;;;;-1.76;100.00;97319.63;10535883;28;20274;-60
2022/03/07 20:47:37;;;;;;;9.53;5.27;;;;;;;-1.91;100.00;97326.25;10535267;28;20225;-59
2022/03/07 20:52:38;;;;;;;10.30;5.13;;;;;;;-2.06;100.00;97328.53;10535649;28;20237;-59
2022/03/07 20:57:41;;;;;;;8.13;5.40;;;;;;;-2.10;100.00;97333.88;10535285;28;20183;-60
2022/03/07 21:02:41;;;;;;;11.77;6.17;;;;;;;-2.03;100.00;97320.72;10535073;28;20225;-60
2022/03/07 21:07:42;;;;;;;10.20;6.17;;;;;;;-2.04;100.00;97329.31;10535369;28;20305;-60
2022/03/07 21:12:42;;;;;;;11.00;6.20;;;;;;;-2.09;100.00;97335.56;10534428;28;20712;-60
2022/03/07 21:17:43;;;;;;;8.97;5.73;;;;;;;-1.97;100.00;97329.91;10535410;28;20217;-56
2022/03/07 21:22:44;;;;;;;14.73;6.40;;;;;;;-1.75;100.00;97329.00;10534458;28;20205;-59
2022/03/07 21:27:44;;;;;;;10.50;5.53;;;;;;;-1.69;100.00;97331.31;10534986;28;20309;-59
2022/03/07 21:32:46;;;;;;;9.30;5.10;;;;;;;-1.65;100.00;97328.53;10534850;28;20210;-57
2022/03/07 21:37:46;;;;;;;9.00;5.90;;;;;;;-1.70;100.00;97327.91;10534550;28;20198;-59
2022/03/07 21:42:47;;;;;;;16.47;5.63;;;;;;;-1.71;100.00;97328.00;10534696;28;20203;-61
2022/03/07 21:47:49;;;;;;;10.80;5.20;;;;;;;-1.80;100.00;97337.72;10535845;28;20615;-60
2022/03/07 21:52:49;;;;;;;8.53;5.27;;;;;;;-1.85;100.00;97339.66;10558641;28;20206;-60
2022/03/07 21:57:50;;;;;;;11.50;5.63;;;;;;;-1.88;100.00;97349.25;10552326;28;20303;-59
2022/03/07 22:02:50;;;;;;;7.50;5.53;;;;;;;-2.05;100.00;97342.22;10544778;28;20223;-58
2022/03/07 22:07:51;;;;;;;11.73;5.90;;;;;;;-2.03;100.00;97335.31;10542062;28;20230;-58
2022/03/07 22:12:51;;;;;;;11.13;5.13;;;;;;;-2.26;100.00;97339.63;10541686;28;20242;-60
2022/03/07 22:17:51;;;;;;;11.37;6.40;;;;;;;-2.34;100.00;97354.50;10542116;28;20221;-60
2022/03/07 22:22:52;;;;;;;9.10;6.03;;;;;;;-2.24;100.00;97353.22;10541314;28;20242;-61
2022/03/07 22:27:52;;;;;;;11.13;6.07;;;;;;;-2.19;100.00;97358.16;10542889;28;20210;-60
2022/03/07 22:32:52;;;;;;;9.37;5.17;;;;;;;-2.15;100.00;97359.72;10541134;28;20214;-59
2022/03/07 22:37:53;;;;;;;8.57;5.40;;;;;;;-2.23;100.00;97354.91;10540917;28;20197;-60
2022/03/07 22:42:53;;;;;;;8.90;5.43;;;;;;;-2.47;100.00;97359.28;10540030;28;20226;-59
2022/03/07 22:47:53;;;;;;;8.80;5.40;;;;;;;-2.60;100.00;97358.09;10537333;28;20226;-56
2022/03/07 22:52:54;;;;;;;9.93;5.20;;;;;;;-2.66;100.00;97356.59;10540352;28;20221;-59
2022/03/07 22:57:54;;;;;;;8.53;5.53;;;;;;;-2.63;100.00;97361.59;10539997;28;20198;-58
2022/03/07 23:02:55;;;;;;;9.97;5.40;;;;;;;-2.75;100.00;97352.66;10538545;28;20209;-57
2022/03/07 23:07:55;;;;;;;8.93;5.37;;;;;;;-2.88;100.00;97349.72;10539106;28;20230;-53
2022/03/07 23:12:56;;;;;;;9.53;5.80;;;;;;;-2.84;100.00;97336.78;10539210;28;20230;-58
2022/03/07 23:17:56;;;;;;;12.00;6.43;;;;;;;-3.01;100.00;97328.00;10538804;28;20183;-57